Terminal Aerodrome Forecast
Issued by NWS Newport/Morehead City, NC

Home | Current Version | Previous Version | Text Only | Print | Product List | Glossary On
Versions: 1 2 3 4 5 6 7 8 9 10 11 12
192
FTUS42 KMHX 252336
TAFEWN
TAF
KEWN 252336Z 2600/2624 19007KT P6SM SCT250
     FM260500 VRB03KT P6SM SCT250
     FM260900 00000KT 5SM BR SCT200
     FM261200 00000KT P6SM BKN140
     FM261600 16006KT P6SM BKN080=

USA.gov is the U.S. government's official web portal to all federal, state and local government web resources and services.